1857 Hurricane NOT_NAMED (1857229N16276)


IBTrACS version v04r00. Visit IBTrACS website for data access.
Please direct all questions to the IBTrACS Q and A forum

Storm track - Intensity - Wind Radii - Intensity Data - Source Data - All data

Summary Information

Storm ID 1857229N16276
Start Aug 16 12Z
Landfall Aug 22 21Z
Max Intensity 65 kt (Aug 19 18Z)
End Aug 23 12Z
ATCF IDs
Track status Best track data.

Storm track plot

Map of storm track

Intensity plots

Map of storm track

Radial wind information

No radial wind information for this storm


Position and Intensity Table

BASIN ISO_TIME_________ NATURE LAT LON MLC WIND
degrees north degrees east kts
NA 1857-08-16 12:00:00 TS 15.80 -84.00 35
NA 15:00:00 TS 16.01 -84.15 37
NA 18:00:00 TS 16.20 -84.30 40
NA 21:00:00 TS 16.35 -84.45 42
NA 1857-08-17 00:00:00 TS 16.50 -84.60 45
NA 03:00:00 TS 16.69 -84.75 45
NA 06:00:00 TS 16.90 -84.90 45
NA 09:00:00 TS 17.10 -85.06 45
NA 12:00:00 TS 17.30 -85.20 45
NA 15:00:00 TS 17.51 -85.32 45
NA 18:00:00 TS 17.70 -85.40 45
NA 21:00:00 TS 17.85 -85.46 45
NA 1857-08-18 00:00:00 TS 18.00 -85.50 45
NA 03:00:00 TS 18.19 -85.55 47
NA 06:00:00 TS 18.40 -85.60 50
NA 09:00:00 TS 18.60 -85.65 50
NA 12:00:00 TS 18.80 -85.70 50
NA 15:00:00 TS 19.01 -85.75 52
NA 18:00:00 TS 19.20 -85.80 55
NA 21:00:00 TS 19.36 -85.85 55
NA 1857-08-19 00:00:00 TS 19.50 -85.90 55
NA 03:00:00 TS 19.64 -85.95 57
NA 06:00:00 TS 19.80 -86.00 60
NA 09:00:00 TS 19.99 -86.05 60
NA 12:00:00 TS 20.20 -86.10 60
NA 15:00:00 TS 20.40 -86.15 62
NA 18:00:00 TS 20.60 -86.20 65
NA 21:00:00 TS 20.80 -86.25 65
NA 1857-08-20 00:00:00 TS 21.00 -86.30 65
NA 03:00:00 TS 21.21 -86.35 65
NA 06:00:00 TS 21.40 -86.40 65
NA 09:00:00 TS 21.52 -86.48 65
NA 12:00:00 TS 21.70 -86.50 65
NA 15:00:00 TS 22.07 -86.39 65
NA 18:00:00 TS 22.50 -86.20 65
NA 21:00:00 TS 22.85 -86.01 65
NA 1857-08-21 00:00:00 TS 23.20 -85.80 65
NA 03:00:00 TS 23.59 -85.60 65
NA 06:00:00 TS 24.00 -85.40 65
NA 09:00:00 TS 24.45 -85.21 65
NA 12:00:00 TS 24.80 -85.00 65
NA 15:00:00 TS 24.89 -84.76 62
NA 18:00:00 TS 24.90 -84.50 60
NA 21:00:00 TS 24.99 -84.25 57
NA 1857-08-22 00:00:00 TS 25.10 -84.00 55
NA 03:00:00 TS 25.21 -83.75 52
NA 06:00:00 TS 25.30 -83.50 50
NA 09:00:00 TS 25.33 -83.29 47
NA 12:00:00 TS 25.40 -83.00 45
NA 15:00:00 TS 25.59 -82.54 42
NA 18:00:00 TS 25.80 -82.00 40
NA 21:00:00 TS 25.95 -81.50 37
NA 1857-08-23 00:00:00 TS 26.10 -81.00 35
NA 03:00:00 TS 26.30 -80.50 32
NA 06:00:00 TS 26.50 -80.00 30
NA 09:00:00 TS 26.66 -79.50 25
NA 12:00:00 ET 26.80 -79.00 20

Source Information

Agency Information
USA
TOKYO
CMA
HKO
NEWDELHI
REUNION
BOM
NADI
WELLINGTON
DS824
TD9636
TD9635
NEUMANN
MLC

All available IBTrACS Data

SEASON BASIN SUBBASIN ISO_TIME_________ NATURE LAT LON DIST2LAND LANDFALL IFLAG USA SSHS MLC LAT MLC LON MLC CLASS MLC WIND STORM SPEED STORM DIR
Year degrees north degrees east km km 1 degrees north degrees east kts kts degrees
1857 NA CS 1857-08-16 12:00:00 TS 15.80 -84.00 22 22 _____________O -1 15.80 -84.00 TS 35 5 326
1857 NA CS 15:00:00 TS 16.01 -84.15 30 24 _____________P -1 16.01 -84.15 TS 37 5 324
1857 NA CS 18:00:00 TS 16.20 -84.30 44 44 _____________O -1 16.20 -84.30 TS 40 4 319
1857 NA CS 21:00:00 TS 16.35 -84.45 49 49 _____________P -1 16.35 -84.45 TS 42 4 316
1857 NA CS 1857-08-17 00:00:00 TS 16.50 -84.60 67 67 _____________O -1 16.50 -84.60 TS 45 4 320
1857 NA CS 03:00:00 TS 16.69 -84.75 89 89 _____________P -1 16.69 -84.75 TS 45 5 324
1857 NA CS 06:00:00 TS 16.90 -84.90 111 111 _____________O -1 16.90 -84.90 TS 45 5 324
1857 NA CS 09:00:00 TS 17.10 -85.06 134 134 _____________P -1 17.10 -85.06 TS 45 5 324
1857 NA CS 12:00:00 TS 17.30 -85.20 156 156 _____________O -1 17.30 -85.20 TS 45 5 329
1857 NA CS 15:00:00 TS 17.51 -85.32 179 179 _____________P -1 17.51 -85.32 TS 45 4 335
1857 NA CS 18:00:00 TS 17.70 -85.40 201 201 _____________O -1 17.70 -85.40 TS 45 4 338
1857 NA CS 21:00:00 TS 17.85 -85.46 212 212 _____________P -1 17.85 -85.46 TS 45 3 343
1857 NA CS 1857-08-18 00:00:00 TS 18.00 -85.50 235 234 _____________O -1 18.00 -85.50 TS 45 4 345
1857 NA CS 03:00:00 TS 18.19 -85.55 234 218 _____________P -1 18.19 -85.55 TS 47 4 347
1857 NA CS 06:00:00 TS 18.40 -85.60 218 210 _____________O -1 18.40 -85.60 TS 50 4 347
1857 NA CS 09:00:00 TS 18.60 -85.65 200 194 _____________P -1 18.60 -85.65 TS 50 4 347
1857 NA CS 12:00:00 TS 18.80 -85.70 194 187 _____________O -1 18.80 -85.70 TS 50 4 347
1857 NA CS 15:00:00 TS 19.01 -85.75 177 171 _____________P -1 19.01 -85.75 TS 52 4 347
1857 NA CS 18:00:00 TS 19.20 -85.80 171 169 _____________O -1 19.20 -85.80 TS 55 4 345
1857 NA CS 21:00:00 TS 19.36 -85.85 157 157 _____________P -1 19.36 -85.85 TS 55 3 343
1857 NA CS 1857-08-19 00:00:00 TS 19.50 -85.90 157 157 _____________O -1 19.50 -85.90 TS 55 3 341
1857 NA CS 03:00:00 TS 19.64 -85.95 147 146 _____________P -1 19.64 -85.95 TS 57 3 343
1857 NA CS 06:00:00 TS 19.80 -86.00 146 129 _____________O -1 19.80 -86.00 TS 60 4 345
1857 NA CS 09:00:00 TS 19.99 -86.05 129 106 _____________P -1 19.99 -86.05 TS 60 4 347
1857 NA CS 12:00:00 TS 20.20 -86.10 106 94 _____________O -1 20.20 -86.10 TS 60 4 347
1857 NA CS 15:00:00 TS 20.40 -86.15 85 76 _____________P -1 20.40 -86.15 TS 62 4 347
1857 NA CS 18:00:00 TS 20.60 -86.20 76 61 _____________O -1 20.60 -86.20 HU 65 4 347
1857 NA CS 21:00:00 TS 20.80 -86.25 53 42 _____________P -1 20.80 -86.25 HU 65 4 347
1857 NA CS 1857-08-20 00:00:00 TS 21.00 -86.30 42 41 _____________O -1 21.00 -86.30 HU 65 4 347
1857 NA CS 03:00:00 TS 21.21 -86.35 33 33 _____________P -1 21.21 -86.35 HU 65 4 347
1857 NA CS 06:00:00 TS 21.40 -86.40 42 38 _____________O -1 21.40 -86.40 HU 65 3 340
1857 NA CS 09:00:00 TS 21.52 -86.48 38 38 _____________P -1 21.52 -86.48 HU 65 3 343
1857 NA CS 12:00:00 TS 21.70 -86.50 53 53 _____________O -1 21.70 -86.50 HU 65 6 9
1857 NA GM 15:00:00 TS 22.07 -86.39 91 91 _____________P -1 22.07 -86.39 HU 65 9 19
1857 NA GM 18:00:00 TS 22.50 -86.20 138 137 _____________O -1 22.50 -86.20 HU 65 9 24
1857 NA GM 21:00:00 TS 22.85 -86.01 151 143 _____________P -1 22.85 -86.01 HU 65 8 28
1857 NA GM 1857-08-21 00:00:00 TS 23.20 -85.80 166 166 _____________O -1 23.20 -85.80 HU 65 8 27
1857 NA GM 03:00:00 TS 23.59 -85.60 188 188 _____________P -1 23.59 -85.60 HU 65 9 25
1857 NA GM 06:00:00 TS 24.00 -85.40 203 203 _____________O -1 24.00 -85.40 HU 65 9 23
1857 NA GM 09:00:00 TS 24.45 -85.21 235 235 _____________P -1 24.45 -85.21 HU 65 9 25
1857 NA GM 12:00:00 TS 24.80 -85.00 255 251 _____________O -1 24.80 -85.00 HU 65 6 43
1857 NA GM 15:00:00 TS 24.89 -84.76 258 248 _____________P -1 24.89 -84.76 HU 62 5 78
1857 NA GM 18:00:00 TS 24.90 -84.50 248 241 _____________O -1 24.90 -84.50 TS 60 5 78
1857 NA GM 21:00:00 TS 24.99 -84.25 251 245 _____________P -1 24.99 -84.25 TS 57 5 66
1857 NA GM 1857-08-22 00:00:00 TS 25.10 -84.00 247 224 _____________O -1 25.10 -84.00 TS 55 5 65
1857 NA GM 03:00:00 TS 25.21 -83.75 224 192 _____________P -1 25.21 -83.75 TS 52 5 66
1857 NA GM 06:00:00 TS 25.30 -83.50 192 173 _____________O -1 25.30 -83.50 TS 50 4 73
1857 NA GM 09:00:00 TS 25.33 -83.29 173 141 _____________P -1 25.33 -83.29 TS 47 5 77
1857 NA GM 12:00:00 TS 25.40 -83.00 141 96 _____________O -1 25.40 -83.00 TS 45 7 70
1857 NA GM 15:00:00 TS 25.59 -82.54 86 32 _____________P -1 25.59 -82.54 TS 42 10 66
1857 NA GM 18:00:00 TS 25.80 -82.00 32 0 _____________O -1 25.80 -82.00 TS 40 10 69
1857 NA NA 21:00:00 TS 25.95 -81.50 0 0 _____________P -1 25.95 -81.50 TS 37 9 72
1857 NA NA 1857-08-23 00:00:00 TS 26.10 -81.00 0 0 _____________O -1 26.10 -81.00 TS 35 10 69
1857 NA NA 03:00:00 TS 26.30 -80.50 0 0 _____________P -1 26.30 -80.50 TS 32 10 66
1857 NA NA 06:00:00 TS 26.50 -80.00 9 9 _____________O -1 26.50 -80.00 TD 30 10 68
1857 NA NA 09:00:00 TS 26.66 -79.50 50 50 _____________P -1 26.66 -79.50 TD 25 9 71
1857 NA NA 12:00:00 ET 26.80 -79.00 99 _____________O -1 26.80 -79.00 EX 20 9 73